Time;durP1;ratioP1;P1;durP2;ratioP2;P2;SDS_P1;SDS_P2;PMS_P1;PMS_P2;Temp;Humidity;BMP_temperature;BMP_pressure;BME280_temperature;BME280_humidity;BME280_pressure;Samples;Min_cycle;Max_cycle;Signal;HPM_P1;HPM_P2
2022/06/13 00:01:41;;;;;;;3.10;2.80;;;;;;;16.04;67.46;96797.27;108031;1265;54908;-76
2022/06/13 00:04:12;;;;;;;5.20;2.50;;;;;;;16.09;67.54;96796.19;107844;1265;109422;-75
2022/06/13 00:06:45;;;;;;;3.00;2.20;;;;;;;16.14;67.43;96798.85;107829;1268;98993;-75
2022/06/13 00:09:17;;;;;;;3.20;2.50;;;;;;;16.10;67.25;96793.40;107766;1268;88767;-75
2022/06/13 00:11:48;;;;;;;2.90;2.60;;;;;;;16.08;67.25;96793.33;107876;1268;53514;-75
2022/06/13 00:14:19;;;;;;;3.10;2.30;;;;;;;16.07;67.30;96793.80;108004;1265;34906;-75
2022/06/13 00:16:51;;;;;;;4.30;2.80;;;;;;;16.05;67.21;96791.65;107799;1265;101608;-75
2022/06/13 00:19:22;;;;;;;3.40;2.40;;;;;;;16.03;67.20;96786.59;107954;1265;89991;-75
2022/06/13 00:21:53;;;;;;;5.50;2.80;;;;;;;16.01;67.21;96779.79;107839;1265;92498;-75
2022/06/13 00:24:25;;;;;;;2.60;2.20;;;;;;;15.97;67.12;96777.08;107947;1265;97752;-75
2022/06/13 00:26:56;;;;;;;4.40;2.60;;;;;;;15.96;67.10;96778.30;107861;1265;96691;-75
2022/06/13 00:29:27;;;;;;;3.50;2.40;;;;;;;15.91;67.11;96772.92;107872;1265;100427;-75
2022/06/13 00:31:59;;;;;;;2.70;2.30;;;;;;;15.84;67.38;96768.70;107854;1265;72647;-75
2022/06/13 00:34:30;;;;;;;2.10;1.90;;;;;;;15.76;67.37;96759.94;107953;1265;72638;-75
2022/06/13 00:37:01;;;;;;;2.80;2.40;;;;;;;15.72;67.60;96758.59;107923;1265;81151;-75
2022/06/13 00:39:32;;;;;;;4.00;2.70;;;;;;;15.71;67.65;96756.92;107992;1265;77544;-75
2022/06/13 00:42:04;;;;;;;3.00;2.60;;;;;;;15.68;67.71;96753.36;107746;1266;90593;-75
2022/06/13 00:44:38;;;;;;;3.30;2.90;;;;;;;15.62;67.99;96753.89;108064;1265;41890;-75
2022/06/13 00:47:12;;;;;;;3.20;2.60;;;;;;;15.56;67.98;96750.11;107900;1265;80018;-76
2022/06/13 00:49:45;;;;;;;4.50;2.40;;;;;;;15.58;68.05;96746.05;108039;1265;44148;-75
2022/06/13 00:52:23;;;;;;;2.90;2.20;;;;;;;15.60;68.10;96742.33;107958;1265;80103;-75
2022/06/13 00:54:55;;;;;;;2.40;2.20;;;;;;;15.58;68.09;96742.64;108055;1265;38750;-75
2022/06/13 00:57:30;;;;;;;3.40;2.40;;;;;;;15.57;68.16;96737.54;107827;1265;82923;-75
2022/06/13 01:00:07;;;;;;;3.10;2.80;;;;;;;15.61;68.20;96734.95;107819;1264;78725;-75
2022/06/13 01:02:44;;;;;;;3.10;2.40;;;;;;;15.62;68.24;96736.41;107931;1265;74355;-76
2022/06/13 01:05:19;;;;;;;4.70;2.60;;;;;;;15.53;68.26;96732.41;107849;1265;121926;-75
2022/06/13 01:07:53;;;;;;;5.30;2.90;;;;;;;15.50;68.37;96733.63;107967;1265;39458;-75
2022/06/13 01:13:14;;;;;;;3.70;2.60;;;;;;;15.48;68.39;96730.12;107886;1267;38980;-75
2022/06/13 01:16:10;;;;;;;3.20;2.30;;;;;;;15.44;68.51;96727.00;107617;1268;128781;-75
2022/06/13 01:19:06;;;;;;;5.30;2.80;;;;;;;15.43;68.57;96721.22;107965;1268;50186;-75
2022/06/13 01:21:46;;;;;;;3.30;2.40;;;;;;;15.33;68.60;96716.83;107920;1265;65835;-75
2022/06/13 01:24:53;;;;;;;3.10;2.40;;;;;;;15.26;68.82;96722.83;107939;1265;76018;-75
2022/06/13 01:28:12;;;;;;;3.90;2.90;;;;;;;15.29;68.85;96715.86;107676;1265;84628;-75
2022/06/13 01:31:11;;;;;;;2.40;2.00;;;;;;;15.39;68.84;96719.00;107494;1271;83102;-75
2022/06/13 01:33:53;;;;;;;8.70;2.50;;;;;;;15.49;68.67;96714.50;107460;1271;54657;-76
2022/06/13 01:36:36;;;;;;;3.60;2.60;;;;;;;15.52;68.58;96710.58;107027;1265;1115369;-75
2022/06/13 01:39:21;;;;;;;6.30;3.30;;;;;;;15.46;68.59;96706.56;108137;1265;73800;-75
2022/06/13 01:42:07;;;;;;;3.70;3.10;;;;;;;15.31;68.99;96706.89;107783;1265;100951;-75
2022/06/13 01:44:46;;;;;;;4.60;3.20;;;;;;;15.19;69.39;96701.63;107957;1265;37244;-75
2022/06/13 01:47:28;;;;;;;3.40;2.80;;;;;;;15.06;69.51;96700.66;107760;1265;104597;-75
2022/06/13 01:50:08;;;;;;;3.70;2.60;;;;;;;15.00;69.74;96698.52;107918;1265;34435;-75
2022/06/13 01:52:50;;;;;;;4.30;2.80;;;;;;;14.98;69.81;96698.58;107780;1265;92256;-76
2022/06/13 01:55:30;;;;;;;4.30;2.90;;;;;;;14.98;69.88;96696.85;108090;1265;31957;-75
2022/06/13 01:58:08;;;;;;;3.20;2.70;;;;;;;15.02;69.94;96692.44;107780;1265;128506;-75
2022/06/13 02:00:44;;;;;;;5.80;2.90;;;;;;;15.09;69.93;96686.25;107879;1265;33378;-75
2022/06/13 02:03:22;;;;;;;3.30;2.40;;;;;;;15.10;69.81;96683.01;106891;1265;1280583;-74
2022/06/13 02:05:59;;;;;;;2.50;2.20;;;;;;;15.09;69.73;96683.67;107986;1265;50658;-75
2022/06/13 02:08:34;;;;;;;3.00;2.40;;;;;;;15.21;69.74;96679.93;107730;1265;113825;-75
2022/06/13 02:11:12;;;;;;;3.10;2.60;;;;;;;15.36;69.58;96679.39;108017;1265;56009;-75
2022/06/13 02:13:49;;;;;;;5.50;3.10;;;;;;;15.46;69.30;96678.80;107766;1265;95843;-74
2022/06/13 02:16:25;;;;;;;2.90;2.40;;;;;;;15.48;69.07;96676.54;107914;1265;34876;-75
2022/06/13 02:19:02;;;;;;;3.70;2.70;;;;;;;15.47;69.06;96669.93;107928;1265;69785;-75
2022/06/13 02:21:40;;;;;;;4.50;2.50;;;;;;;15.47;68.90;96671.09;108051;1265;78573;-75
2022/06/13 02:24:17;;;;;;;2.40;2.20;;;;;;;15.43;68.81;96667.63;107991;1265;68454;-75
2022/06/13 02:26:52;;;;;;;3.10;2.20;;;;;;;15.39;68.74;96663.51;108085;1265;31482;-75
2022/06/13 02:29:29;;;;;;;3.00;2.20;;;;;;;15.36;68.81;96661.58;107851;1265;61653;-75
2022/06/13 02:32:09;;;;;;;3.40;2.40;;;;;;;15.36;68.85;96658.90;107866;1265;40178;-75
2022/06/13 02:34:43;;;;;;;2.90;2.60;;;;;;;15.34;68.90;96657.54;106721;1265;1608013;-75
2022/06/13 02:37:20;;;;;;;3.60;2.50;;;;;;;15.32;68.98;96658.71;107965;1265;31446;-75
2022/06/13 02:39:57;;;;;;;3.60;2.90;;;;;;;15.32;69.01;96656.95;107985;1265;42984;-75
2022/06/13 02:42:32;;;;;;;4.00;2.60;;;;;;;15.33;68.96;96655.10;107948;1265;36437;-75
2022/06/13 02:45:09;;;;;;;3.80;2.10;;;;;;;15.31;68.79;96658.30;107837;1265;69487;-75
2022/06/13 02:47:44;;;;;;;3.10;2.00;;;;;;;15.29;68.83;96654.73;107964;1265;34874;-75
2022/06/13 02:50:24;;;;;;;4.80;2.20;;;;;;;15.30;68.91;96652.88;107859;1263;64489;-75
2022/06/13 02:53:04;;;;;;;4.20;2.60;;;;;;;15.30;68.74;96652.73;108045;1265;33046;-75
2022/06/13 02:55:42;;;;;;;5.00;2.80;;;;;;;15.27;68.85;96653.48;108026;1265;60292;-74
2022/06/13 02:58:25;;;;;;;3.40;2.60;;;;;;;15.29;68.89;96653.92;107958;1265;46502;-75
2022/06/13 03:01:04;;;;;;;2.90;2.50;;;;;;;15.34;68.83;96655.77;108010;1265;55344;-75
2022/06/13 03:03:44;;;;;;;2.60;2.20;;;;;;;15.39;68.82;96653.85;108116;1265;36897;-74
2022/06/13 03:06:25;;;;;;;4.40;2.60;;;;;;;15.47;68.64;96654.95;108045;1265;42967;-75
2022/06/13 03:09:05;;;;;;;3.50;2.50;;;;;;;15.50;68.64;96656.52;107911;1265;50828;-74
2022/06/13 03:11:47;;;;;;;3.40;3.10;;;;;;;15.51;68.66;96653.00;108050;1265;60081;-75
2022/06/13 03:14:39;;;;;;;3.50;2.60;;;;;;;15.54;68.70;96654.64;107963;1265;57160;-75
2022/06/13 03:17:21;;;;;;;4.30;2.70;;;;;;;15.51;68.76;96654.53;107852;1265;45203;-75
2022/06/13 03:19:57;;;;;;;4.60;2.70;;;;;;;15.52;68.84;96653.02;107935;1265;57255;-75
2022/06/13 03:22:38;;;;;;;2.70;2.40;;;;;;;15.52;68.83;96651.67;108012;1265;54009;-75
2022/06/13 03:25:15;;;;;;;5.20;2.50;;;;;;;15.51;68.89;96646.36;108052;1265;35917;-75
2022/06/13 03:27:50;;;;;;;3.80;2.60;;;;;;;15.49;68.90;96638.98;106528;1265;1901556;-75
2022/06/13 03:30:24;;;;;;;3.40;2.40;;;;;;;15.52;69.03;96637.79;108021;1265;46505;-75
2022/06/13 03:35:52;;;;;;;4.90;2.50;;;;;;;15.54;69.24;96636.94;108070;1265;38673;-75
2022/06/13 03:38:28;;;;;;;3.30;2.30;;;;;;;15.60;69.06;96637.86;108008;1265;70854;-75
2022/06/13 03:41:02;;;;;;;2.50;2.10;;;;;;;15.66;68.61;96635.48;107983;1265;35753;-74
2022/06/13 03:43:39;;;;;;;3.20;2.50;;;;;;;15.66;68.44;96640.54;107980;1264;36172;-74
2022/06/13 03:46:18;;;;;;;3.20;2.60;;;;;;;15.64;68.37;96638.61;107989;1265;55356;-75
2022/06/13 03:48:58;;;;;;;2.80;2.10;;;;;;;15.63;68.39;96640.84;107993;1266;34838;-75
2022/06/13 03:51:30;;;;;;;;;;;;;;;15.65;68.32;96636.35;107953;1265;65294;-75
2022/06/13 03:54:07;;;;;;;3.90;2.50;;;;;;;15.65;68.22;96636.29;108043;1265;40921;-74
2022/06/13 03:56:44;;;;;;;3.40;2.60;;;;;;;15.65;68.33;96632.83;106493;1265;2140421;-74
2022/06/13 03:59:22;;;;;;;2.60;2.40;;;;;;;15.62;68.24;96629.73;108021;1265;49937;-75
2022/06/13 04:01:59;;;;;;;4.30;3.20;;;;;;;15.57;68.35;96624.88;107905;1265;43478;-74
2022/06/13 04:04:39;;;;;;;2.80;2.60;;;;;;;15.53;68.52;96622.63;107926;1265;31101;-74
2022/06/13 04:07:10;;;;;;;3.50;2.60;;;;;;;15.51;68.73;96621.95;107921;1265;53219;-75
2022/06/13 04:09:45;;;;;;;3.20;2.60;;;;;;;15.52;68.75;96620.90;107858;1265;46496;-75
2022/06/13 04:12:33;;;;;;;3.60;2.40;;;;;;;15.53;68.80;96618.80;107873;1265;40733;-75
2022/06/13 04:15:45;;;;;;;5.50;2.80;;;;;;;15.57;68.77;96613.42;107946;1267;32584;-74
2022/06/13 04:18:28;;;;;;;4.30;2.70;;;;;;;15.62;68.71;96613.28;107928;1265;33693;-75
2022/06/13 04:21:08;;;;;;;4.20;2.60;;;;;;;15.69;68.51;96611.64;107830;1265;63911;-74
2022/06/13 04:23:48;;;;;;;3.60;2.40;;;;;;;15.75;68.32;96604.73;107879;1265;37294;-75
2022/06/13 04:26:28;;;;;;;2.50;2.30;;;;;;;15.84;67.95;96605.80;107919;1265;33473;-75
2022/06/13 04:29:09;;;;;;;4.60;3.00;;;;;;;15.93;67.53;96605.31;108060;1264;39567;-74
2022/06/13 04:31:42;;;;;;;4.90;3.00;;;;;;;16.04;67.43;96602.17;107882;1265;35710;-75
2022/06/13 04:34:17;;;;;;;3.00;2.30;;;;;;;16.14;67.04;96604.08;108013;1265;70083;-74
2022/06/13 04:36:51;;;;;;;3.20;2.40;;;;;;;16.21;66.83;96605.63;107938;1265;49059;-74
2022/06/13 04:39:26;;;;;;;5.20;2.60;;;;;;;16.28;66.78;96607.31;107903;1265;50605;-74
2022/06/13 04:42:00;;;;;;;3.30;2.10;;;;;;;16.37;66.54;96604.54;107855;1265;61342;-74
2022/06/13 04:44:34;;;;;;;4.00;2.30;;;;;;;16.44;66.43;96607.58;107945;1265;37201;-74
2022/06/13 04:47:07;;;;;;;4.10;2.70;;;;;;;16.52;66.29;96605.79;107913;1266;47009;-75
2022/06/13 04:49:45;;;;;;;3.70;2.80;;;;;;;16.60;66.35;96598.63;107967;1265;34645;-75
2022/06/13 04:52:20;;;;;;;4.00;2.70;;;;;;;16.69;66.31;96594.23;107876;1265;46455;-75
2022/06/13 04:54:59;;;;;;;2.80;2.40;;;;;;;16.81;66.37;96593.65;107883;1266;41326;-75
2022/06/13 04:57:31;;;;;;;2.70;2.30;;;;;;;16.96;65.92;96580.98;108052;1265;54818;-74
2022/06/13 05:00:03;;;;;;;3.50;2.60;;;;;;;17.04;65.40;96576.42;108056;1264;45528;-74
2022/06/13 05:02:41;;;;;;;2.40;1.60;;;;;;;17.07;65.24;96567.69;108062;1264;41143;-74
2022/06/13 05:05:30;;;;;;;2.60;1.90;;;;;;;17.14;65.14;96570.08;107921;1265;53198;-75
2022/06/13 05:08:10;;;;;;;4.00;2.40;;;;;;;17.32;65.11;96558.41;107942;1265;49604;-74
2022/06/13 05:10:46;;;;;;;4.10;2.40;;;;;;;17.52;64.38;96554.90;107827;1265;76878;-74
2022/06/13 05:13:18;;;;;;;5.50;2.40;;;;;;;17.74;63.86;96554.10;107943;1265;41112;-75
2022/06/13 05:15:54;;;;;;;4.90;2.50;;;;;;;18.07;62.80;96547.98;107867;1265;67077;-74
2022/06/13 05:18:39;;;;;;;3.30;2.20;;;;;;;18.44;61.77;96554.37;107955;1265;33029;-74
2022/06/13 05:21:25;;;;;;;2.30;1.80;;;;;;;19.06;60.62;96552.98;107956;1265;34733;-75
2022/06/13 05:24:24;;;;;;;5.50;2.30;;;;;;;21.06;58.76;96557.39;108021;1264;44062;-74
2022/06/13 05:26:55;;;;;;;2.20;1.90;;;;;;;23.61;53.18;96559.91;107865;1265;86409;-75
2022/06/13 05:29:28;;;;;;;2.30;2.10;;;;;;;25.09;50.93;96570.14;108080;1264;31977;-75
2022/06/13 05:31:59;;;;;;;2.60;1.60;;;;;;;26.14;47.00;96561.11;107919;1265;79414;-75
2022/06/13 05:34:34;;;;;;;1.80;1.60;;;;;;;26.79;45.28;96562.88;107870;1266;44500;-75
2022/06/13 05:37:06;;;;;;;3.50;1.70;;;;;;;27.58;43.52;96557.15;108027;1265;38056;-75
2022/06/13 05:39:39;;;;;;;2.60;1.70;;;;;;;28.15;41.32;96553.27;107938;1266;37822;-75
2022/06/13 05:42:13;;;;;;;2.60;1.40;;;;;;;28.77;42.13;96554.97;107931;1265;41160;-76
2022/06/13 05:44:44;;;;;;;2.90;1.80;;;;;;;29.67;39.03;96554.29;107961;1265;65307;-76
2022/06/13 05:47:19;;;;;;;2.40;1.60;;;;;;;29.51;38.88;96553.17;107829;1265;96739;-76
2022/06/13 05:49:50;;;;;;;2.20;1.50;;;;;;;29.96;38.32;96549.64;107997;1265;65651;-76
2022/06/13 05:52:22;;;;;;;2.80;1.60;;;;;;;30.54;37.32;96547.29;108030;1265;46233;-76
2022/06/13 05:54:53;;;;;;;1.50;1.20;;;;;;;31.20;36.50;96547.09;107968;1265;62795;-76
2022/06/13 05:57:25;;;;;;;2.00;1.50;;;;;;;31.89;35.01;96545.82;108042;1265;36743;-76
2022/06/13 05:59:59;;;;;;;1.90;1.40;;;;;;;32.39;34.59;96543.15;107970;1264;61311;-76
2022/06/13 06:02:31;;;;;;;1.40;1.20;;;;;;;32.82;34.53;96550.75;108017;1265;56581;-76
2022/06/13 06:05:02;;;;;;;3.30;1.50;;;;;;;33.46;32.87;96555.19;107959;1265;81736;-76
2022/06/13 06:07:34;;;;;;;6.10;1.70;;;;;;;33.76;32.58;96553.89;108020;1265;37026;-76
2022/06/13 06:10:08;;;;;;;2.90;1.40;;;;;;;34.56;32.73;96554.04;108080;1265;44948;-76
2022/06/13 06:12:39;;;;;;;1.30;1.20;;;;;;;35.54;31.95;96550.65;108074;1265;57840;-77
2022/06/13 06:15:11;;;;;;;2.70;1.30;;;;;;;35.42;30.02;96549.49;107893;1265;48057;-76
2022/06/13 06:17:43;;;;;;;2.30;1.30;;;;;;;35.35;30.86;96550.11;107971;1265;50013;-77
2022/06/13 06:20:18;;;;;;;1.40;1.30;;;;;;;35.37;29.26;96549.34;107846;1265;72839;-77
2022/06/13 06:22:50;;;;;;;1.70;1.50;;;;;;;35.32;29.62;96554.12;107916;1266;34117;-77
2022/06/13 06:25:21;;;;;;;4.80;1.70;;;;;;;35.71;29.06;96553.67;107790;1267;60021;-76
2022/06/13 06:27:52;;;;;;;1.70;1.30;;;;;;;36.10;29.06;96549.58;107828;1267;82977;-77
2022/06/13 06:30:27;;;;;;;3.00;1.40;;;;;;;36.32;28.73;96549.20;107964;1264;47986;-77
2022/06/13 06:32:59;;;;;;;3.00;1.90;;;;;;;36.29;27.80;96551.42;107986;1265;33644;-77
2022/06/13 06:35:34;;;;;;;1.20;1.10;;;;;;;36.01;28.20;96547.93;108008;1265;49951;-77
2022/06/13 06:38:05;;;;;;;1.60;1.30;;;;;;;35.23;27.36;96545.84;107944;1265;65230;-77
2022/06/13 06:40:38;;;;;;;3.40;1.20;;;;;;;35.23;27.83;96544.79;107919;1265;47702;-77
2022/06/13 06:43:09;;;;;;;2.20;1.40;;;;;;;35.14;27.86;96542.43;108084;1265;38341;-77
2022/06/13 06:45:41;;;;;;;1.50;1.10;;;;;;;35.73;28.46;96544.02;107882;1265;58660;-77
2022/06/13 06:48:17;;;;;;;1.60;1.10;;;;;;;36.56;27.26;96541.93;107983;1265;32947;-78
2022/06/13 06:50:49;;;;;;;1.70;1.20;;;;;;;36.81;26.51;96546.87;108033;1265;57060;-77
2022/06/13 06:53:23;;;;;;;2.00;1.20;;;;;;;37.16;26.44;96546.63;108050;1265;43104;-77
2022/06/13 07:01:34;;;;;;;1.80;1.10;;;;;;;37.83;25.05;96540.65;108063;1265;35162;-77
2022/06/13 07:04:05;;;;;;;1.60;1.20;;;;;;;38.32;24.05;96541.97;108138;1265;33167;-77
2022/06/13 07:06:38;;;;;;;2.10;1.40;;;;;;;38.44;24.14;96534.86;108006;1265;63666;-77
2022/06/13 07:09:10;;;;;;;2.40;1.20;;;;;;;38.83;23.62;96534.52;107941;1265;34645;-78
2022/06/13 07:11:57;;;;;;;1.40;1.30;;;;;;;38.99;22.33;96534.39;107970;1264;48125;-77
2022/06/13 07:14:31;;;;;;;2.40;1.10;;;;;;;38.89;22.60;96527.02;108066;1265;39693;-77
2022/06/13 07:17:05;;;;;;;1.40;1.30;;;;;;;38.40;23.09;96523.16;107905;1266;34962;-76
2022/06/13 07:19:37;;;;;;;2.00;1.20;;;;;;;37.68;22.89;96520.86;108013;1265;32875;-77
2022/06/13 07:22:13;;;;;;;3.20;1.10;;;;;;;36.68;23.72;96517.09;108007;1265;38973;-77
2022/06/13 07:24:44;;;;;;;4.60;1.50;;;;;;;35.83;24.27;96509.12;107940;1265;54738;-77
2022/06/13 07:27:17;;;;;;;3.30;1.80;;;;;;;35.84;24.67;96508.05;108005;1265;38175;-77
2022/06/13 07:29:48;;;;;;;3.10;1.20;;;;;;;35.82;25.17;96509.55;108022;1264;40277;-77
2022/06/13 07:32:21;;;;;;;2.30;1.20;;;;;;;36.94;25.44;96512.23;108019;1264;39536;-77
2022/06/13 07:34:54;;;;;;;1.20;1.10;;;;;;;37.59;23.67;96511.48;107998;1265;42811;-77
2022/06/13 07:40:16;;;;;;;2.90;1.40;;;;;;;39.54;23.16;96505.36;107986;1264;41991;-78
2022/06/13 07:42:52;;;;;;;3.00;1.50;;;;;;;40.27;22.07;96510.42;108043;1265;35936;-78
2022/06/13 07:45:27;;;;;;;2.40;1.40;;;;;;;40.19;22.21;96513.26;107894;1265;58952;-76
2022/06/13 07:47:58;;;;;;;3.10;1.50;;;;;;;41.13;22.07;96507.69;108011;1265;42091;-77
2022/06/13 07:50:31;;;;;;;1.50;1.30;;;;;;;41.82;20.77;96505.80;107945;1265;43908;-77
2022/06/13 07:53:02;;;;;;;3.20;1.50;;;;;;;41.57;20.72;96505.02;107999;1265;39649;-76
2022/06/13 07:55:33;;;;;;;4.60;2.20;;;;;;;41.67;20.73;96510.17;107969;1265;41955;-77
2022/06/13 07:58:05;;;;;;;2.50;1.30;;;;;;;41.77;19.97;96504.11;107855;1266;56968;-77
2022/06/13 08:00:38;;;;;;;1.80;1.50;;;;;;;41.41;20.64;96499.52;107985;1267;44013;-77
2022/06/13 08:03:14;;;;;;;1.40;1.30;;;;;;;41.68;20.81;96501.89;108000;1265;44871;-76
2022/06/13 08:05:45;;;;;;;1.60;1.50;;;;;;;42.44;19.96;96501.71;107978;1265;37083;-77
2022/06/13 08:08:17;;;;;;;1.70;1.30;;;;;;;41.97;19.29;96493.02;107977;1265;35589;-77
2022/06/13 08:10:50;;;;;;;1.80;1.60;;;;;;;41.89;20.04;96494.55;107879;1266;63458;-77
2022/06/13 08:13:23;;;;;;;1.90;1.50;;;;;;;42.53;20.00;96498.84;107982;1265;51151;-77
2022/06/13 08:15:54;;;;;;;2.10;1.60;;;;;;;43.23;19.04;96504.20;107940;1266;33976;-77
2022/06/13 08:18:25;;;;;;;2.80;1.70;;;;;;;43.52;19.23;96501.67;106894;1265;1364390;-77
2022/06/13 08:20:57;;;;;;;1.60;1.50;;;;;;;44.70;19.40;96496.34;108030;1265;35719;-76
2022/06/13 08:23:28;;;;;;;2.00;1.80;;;;;;;45.73;17.93;96496.58;107936;1265;52553;-76
2022/06/13 08:25:59;;;;;;;2.10;1.70;;;;;;;44.96;17.24;96499.61;107959;1266;32343;-76
2022/06/13 08:28:30;;;;;;;2.50;1.90;;;;;;;44.42;18.23;96495.16;107950;1265;74127;-76
2022/06/13 08:31:06;;;;;;;2.00;1.60;;;;;;;44.60;16.82;96494.05;108050;1265;44251;-76
2022/06/13 08:33:38;;;;;;;1.80;1.70;;;;;;;41.58;16.84;96490.20;107991;1266;42726;-76
2022/06/13 08:36:10;;;;;;;2.70;1.70;;;;;;;39.13;19.27;96492.61;108074;1265;36316;-76
2022/06/13 08:38:43;;;;;;;1.50;1.40;;;;;;;38.22;19.79;96482.42;107950;1265;45149;-76
2022/06/13 08:41:28;;;;;;;2.20;1.40;;;;;;;38.31;20.55;96481.16;107913;1265;54185;-76
2022/06/13 08:44:34;;;;;;;1.90;1.60;;;;;;;39.38;20.56;96477.33;108017;1264;35891;-76
2022/06/13 08:47:11;;;;;;;1.90;1.30;;;;;;;38.66;20.27;96475.23;108070;1265;48649;-76
2022/06/13 08:49:51;;;;;;;1.80;1.50;;;;;;;36.97;21.85;96475.05;107799;1264;250224;-76
2022/06/13 08:52:28;;;;;;;4.30;2.10;;;;;;;35.23;24.49;96470.36;107981;1265;45821;-76
2022/06/13 08:55:10;;;;;;;2.00;1.80;;;;;;;33.60;26.84;96472.56;107991;1265;36254;-75
2022/06/13 08:57:45;;;;;;;5.90;2.30;;;;;;;32.22;28.78;96468.06;107960;1265;43458;-76
2022/06/13 09:00:22;;;;;;;2.00;1.80;;;;;;;31.28;30.08;96470.05;108034;1265;38887;-75
2022/06/13 09:02:56;;;;;;;2.60;2.00;;;;;;;31.20;31.01;96468.83;107968;1265;39529;-76
2022/06/13 09:05:37;;;;;;;2.60;2.40;;;;;;;31.10;31.89;96466.89;108102;1264;32456;-76
2022/06/13 09:08:16;;;;;;;3.40;2.40;;;;;;;30.91;31.80;96465.54;108070;1265;52764;-76
2022/06/13 09:10:56;;;;;;;3.30;2.60;;;;;;;30.31;32.76;96460.64;108004;1265;46563;-76
2022/06/13 09:13:33;;;;;;;3.80;2.80;;;;;;;29.32;34.06;96456.17;107979;1264;45416;-76
2022/06/13 09:16:11;;;;;;;3.40;2.60;;;;;;;28.80;35.24;96461.87;107950;1265;35467;-76
2022/06/13 09:18:49;;;;;;;3.70;3.00;;;;;;;28.82;35.66;96465.27;107892;1265;41185;-76
2022/06/13 09:21:27;;;;;;;5.70;3.30;;;;;;;28.68;36.04;96464.29;108007;1265;36089;-75
2022/06/13 09:24:09;;;;;;;3.20;2.90;;;;;;;28.33;37.22;96462.78;108031;1265;34416;-76
2022/06/13 09:26:47;;;;;;;6.50;3.50;;;;;;;27.99;38.08;96454.96;107953;1266;34249;-75
2022/06/13 09:29:25;;;;;;;5.30;3.40;;;;;;;28.10;38.34;96448.83;107903;1265;51232;-75
2022/06/13 09:32:01;;;;;;;3.40;3.00;;;;;;;28.58;38.33;96442.52;107933;1266;32975;-75
2022/06/13 09:34:39;;;;;;;4.80;3.40;;;;;;;28.92;38.10;96443.16;108017;1265;41250;-76
2022/06/13 09:37:14;;;;;;;5.10;3.10;;;;;;;29.15;38.18;96435.73;108022;1265;34398;-76
2022/06/13 09:39:46;;;;;;;3.70;3.00;;;;;;;28.99;36.60;96437.34;107918;1265;50279;-76
2022/06/13 09:42:34;;;;;;;4.60;3.60;;;;;;;28.29;37.49;96435.45;107964;1265;35508;-76
2022/06/13 09:45:33;;;;;;;4.70;3.80;;;;;;;27.91;38.21;96437.77;107949;1266;53110;-76
2022/06/13 09:48:13;;;;;;;4.70;3.60;;;;;;;27.06;38.48;96440.34;107907;1266;34522;-76
2022/06/13 09:50:49;;;;;;;5.50;4.20;;;;;;;26.41;39.48;96442.59;107923;1266;75525;-76
2022/06/13 09:53:29;;;;;;;5.20;3.70;;;;;;;25.66;40.06;96442.89;107912;1264;50535;-76
2022/06/13 09:56:04;;;;;;;6.70;4.00;;;;;;;25.08;41.50;96450.41;107924;1266;41691;-76
2022/06/13 09:58:48;;;;;;;5.50;4.00;;;;;;;24.71;42.04;96449.16;108056;1267;37541;-76
2022/06/13 10:01:27;;;;;;;7.60;4.30;;;;;;;24.40;43.00;96450.09;107937;1266;46557;-76
2022/06/13 10:04:05;;;;;;;8.90;4.00;;;;;;;24.11;43.59;96448.67;107941;1266;35721;-76
2022/06/13 10:06:44;;;;;;;7.10;4.50;;;;;;;23.92;44.03;96449.14;108080;1265;43709;-76
2022/06/13 10:09:36;;;;;;;6.00;4.40;;;;;;;23.83;44.29;96448.41;107942;1265;48143;-76
2022/06/13 10:12:18;;;;;;;6.60;4.10;;;;;;;23.84;44.71;96452.67;108028;1265;39176;-76
2022/06/13 10:15:10;;;;;;;7.10;4.30;;;;;;;23.94;45.13;96439.65;107997;1265;38777;-76
2022/06/13 10:18:04;;;;;;;6.80;4.50;;;;;;;24.53;44.99;96440.46;107936;1265;58697;-76
2022/06/13 10:20:41;;;;;;;6.70;4.20;;;;;;;25.00;44.56;96432.22;108005;1265;67767;-76
2022/06/13 10:23:26;;;;;;;6.90;4.10;;;;;;;25.17;44.41;96429.32;107956;1266;34533;-76
2022/06/13 10:26:06;;;;;;;7.40;4.00;;;;;;;25.20;43.34;96432.53;107969;1265;44422;-76
2022/06/13 10:29:11;;;;;;;4.90;4.10;;;;;;;25.09;43.28;96432.68;108102;1265;34734;-76
2022/06/13 10:31:59;;;;;;;5.60;4.00;;;;;;;24.87;43.58;96435.73;107979;1265;40770;-76
2022/06/13 10:34:41;;;;;;;5.70;4.10;;;;;;;24.93;43.81;96436.17;107983;1264;47318;-75
2022/06/13 10:37:23;;;;;;;5.10;3.90;;;;;;;24.77;43.87;96432.02;107902;1267;47514;-76
2022/06/13 10:39:56;;;;;;;6.40;5.00;;;;;;;24.51;44.76;96431.22;107957;1264;48443;-76
2022/06/13 10:42:32;;;;;;;5.80;4.30;;;;;;;24.36;44.80;96425.28;107839;1265;81752;-76
2022/06/13 10:45:07;;;;;;;4.70;4.20;;;;;;;24.19;45.35;96427.40;106679;1265;1725893;-76
2022/06/13 10:47:46;;;;;;;7.30;4.90;;;;;;;24.13;45.79;96429.19;108006;1265;54739;-75
2022/06/13 10:50:24;;;;;;;6.40;5.40;;;;;;;24.00;46.41;96433.75;107952;1265;33422;-76
2022/06/13 10:53:01;;;;;;;9.00;6.10;;;;;;;23.73;47.09;96434.90;107862;1265;44443;-76
2022/06/13 10:55:39;;;;;;;9.60;5.40;;;;;;;23.41;47.95;96437.22;107947;1266;41259;-76
2022/06/13 10:58:17;;;;;;;11.60;5.70;;;;;;;23.07;48.89;96440.67;108022;1265;43469;-76
2022/06/13 11:01:07;;;;;;;7.60;4.80;;;;;;;22.69;49.94;96445.98;108036;1264;33256;-76
2022/06/13 11:03:41;;;;;;;7.30;5.10;;;;;;;22.34;50.89;96445.66;107964;1265;69096;-76
2022/06/13 11:06:31;;;;;;;6.80;5.10;;;;;;;22.06;52.40;96439.56;107917;1265;67106;-76
2022/06/13 11:09:05;;;;;;;6.00;4.50;;;;;;;21.61;54.42;96442.02;107843;1265;116596;-76
2022/06/13 11:11:40;;;;;;;5.00;3.60;;;;;;;21.11;56.10;96440.73;108062;1265;62402;-75
2022/06/13 11:14:27;;;;;;;10.10;4.30;;;;;;;20.53;58.92;96444.11;107852;1264;82095;-76
2022/06/13 11:22:52;;;;;;;6.90;4.10;;;;;;;18.83;66.03;96470.27;107981;1265;34506;-75
2022/06/13 11:25:27;;;;;;;6.60;3.70;;;;;;;18.55;68.23;96478.74;107799;1266;102435;-76
2022/06/13 11:28:12;;;;;;;5.60;3.80;;;;;;;18.24;69.11;96492.70;107976;1265;49060;-75
2022/06/13 11:30:47;;;;;;;6.10;3.90;;;;;;;18.07;69.83;96484.52;107726;1265;109234;-76
2022/06/13 11:33:32;;;;;;;6.00;3.20;;;;;;;17.97;70.10;96476.39;107947;1266;41934;-75
2022/06/13 11:36:21;;;;;;;4.90;3.30;;;;;;;17.86;70.50;96464.11;106628;1265;1741118;-75
2022/06/13 11:38:59;;;;;;;4.70;3.00;;;;;;;17.74;71.22;96474.52;107947;1265;50001;-75
2022/06/13 11:41:37;;;;;;;5.20;3.50;;;;;;;17.70;71.51;96481.17;108019;1266;34484;-75
2022/06/13 11:44:11;;;;;;;4.90;3.30;;;;;;;17.68;71.81;96483.98;108084;1266;45069;-75
2022/06/13 11:46:46;;;;;;;5.20;3.20;;;;;;;17.64;72.54;96478.86;107992;1265;33291;-75
2022/06/13 11:49:34;;;;;;;7.20;2.90;;;;;;;17.70;72.30;96478.39;107932;1265;66515;-75
2022/06/13 11:55:25;;;;;;;4.20;2.60;;;;;;;18.12;71.55;96484.16;107938;1265;43428;-75
2022/06/13 11:57:59;;;;;;;4.90;3.10;;;;;;;18.28;70.80;96487.00;107975;1266;38161;-75
2022/06/13 12:00:49;;;;;;;4.80;3.10;;;;;;;18.42;70.97;96488.89;107936;1267;53057;-75
2022/06/13 12:03:23;;;;;;;2.50;2.30;;;;;;;18.60;70.77;96485.20;107977;1266;50766;-75
2022/06/13 12:06:00;;;;;;;3.30;2.60;;;;;;;18.73;70.23;96476.05;107931;1266;54297;-75
2022/06/13 12:08:32;;;;;;;6.10;2.70;;;;;;;18.83;70.35;96474.18;107933;1266;52475;-75
2022/06/13 12:11:06;;;;;;;4.40;3.00;;;;;;;19.08;70.37;96481.48;107915;1266;49874;-75
2022/06/13 12:13:45;;;;;;;4.20;2.90;;;;;;;19.28;69.54;96490.19;107967;1266;43954;-75
2022/06/13 12:16:28;;;;;;;4.10;2.90;;;;;;;19.20;69.38;96494.94;107972;1266;59606;-75
2022/06/13 12:19:09;;;;;;;3.20;2.90;;;;;;;19.16;69.69;96491.83;107890;1266;59635;-75
2022/06/13 12:21:46;;;;;;;3.00;2.50;;;;;;;19.33;70.22;96491.27;107911;1265;44242;-75
2022/06/13 12:24:24;;;;;;;3.40;3.00;;;;;;;19.60;69.56;96480.04;107898;1266;39123;-75
2022/06/13 12:27:02;;;;;;;6.60;3.00;;;;;;;19.92;70.03;96481.05;107873;1266;64508;-75
2022/06/13 12:29:47;;;;;;;3.50;2.70;;;;;;;20.18;69.28;96475.30;107995;1266;40235;-75
2022/06/13 12:32:26;;;;;;;3.60;3.10;;;;;;;20.39;67.90;96473.98;107916;1267;35193;-75
2022/06/13 12:35:15;;;;;;;6.60;3.10;;;;;;;20.51;67.37;96471.84;107985;1266;38369;-75